Last 24 Hours

OV-Belmont 8000'

Hourly Data | America/Los_Angeles
as of 10/6/22 7:27 PM PDT
Date & Time Temp (°F) RH (%) Dew Pt (°F) Wet Bulb (°F) Wind Dir (°) Wind Spd (mph) Wind Gust (mph) WindChill (°F) Latest Rain (In) Daily Min Temp (°F) Daily Max Temp (°F) Daily Rain (In)
10/6/22 - 1900 56.1 29 23.9 41.0 WSW | 237 9.3 15.4 57.6 0.00 50.5 71.2 0.00
10/6/22 - 1800 59.0 26 23.8 42.3 WSW | 241 7.0 13.2 60.7 0.00 50.5 71.2 0.00
10/6/22 - 1700 61.8 24 24.8 43.9 W | 270 6.7 16.0 63.6 0.00 50.5 71.2 0.00
10/6/22 - 1600 66.4 21 25.1 46.0 WSW | 246 5.1 13.5 65.6 0.00 50.5 71.2 0.00
10/6/22 - 1500 64.0 22 24.1 44.7 SSW | 208 6.6 13.8 65.9 0.00 50.5 71.2 0.00
10/6/22 - 1400 66.8 18 21.6 45.2 SW | 215 5.9 14.8 68.0 0.00 50.5 71.2 0.00
10/6/22 - 1300 70.4 18 24.8 47.5 S | 172 6.1 15.4 68.0 0.00 50.5 70.4 0.00
10/6/22 - 1200 67.6 16 19.3 45.0 SSE | 154 3.8 11.3 66.3 0.00 50.5 69.8 0.00
10/6/22 - 1100 65.1 29 32.0 47.5 E | 94 2.3 8.0 60.3 0.00 50.5 65.1 0.00
10/6/22 - 1000 62.0 28 28.9 45.2 SE | 145 2.2 5.8 59.8 0.00 50.5 62.2 0.00
10/6/22 - 0900 57.8 31 27.7 43.0 SE | 139 0.8 4.3 55.4 0.00 50.5 57.8 0.00
10/6/22 - 0800 53.2 33 25.0 40.0 SSW | 207 0.5 2.7 51.7 0.00 50.5 53.4 0.00
10/6/22 - 0700 50.7 33 22.4 38.0 SW | 220 0.6 2.3 51.0 0.00 50.5 53.0 0.00
10/6/22 - 0600 51.2 34 23.8 38.7 NNW | 345 0.0 1.2 51.3 0.00 50.7 53.0 0.00
10/6/22 - 0500 51.2 34 23.5 38.6 SSW | 196 0.2 2.6 51.8 0.00 51.0 53.0 0.00
10/6/22 - 0400 52.3 32 23.3 39.0 S | 182 0.5 5.2 52.3 0.00 51.4 53.0 0.00
10/6/22 - 0300 52.1 31 22.7 38.8 SW | 215 0.3 2.0 52.4 0.00 51.4 53.0 0.00
10/6/22 - 0200 51.7 33 23.7 39.0 SSW | 196 0.3 4.0 52.2 0.00 51.4 53.0 0.00
10/6/22 - 0100 51.5 36 25.1 39.2 S | 180 0.4 4.8 52.4 0.00 51.4 53.0 0.00
10/6/22 - 0000 52.5 37 27.2 40.4 SSE | 166 0.4 2.8 51.9 0.00 49.5 71.2 0.00
10/5/22 - 2300 51.2 50 33.3 42.1 ESE | 109 0.6 2.5 51.4 0.00 49.5 71.2 0.00
10/5/22 - 2200 52.1 48 32.8 42.3 ENE | 75 1.3 5.2 53.8 0.00 49.5 71.2 0.00
10/5/22 - 2100 56.3 42 33.4 44.4 N | 357 2.4 9.0 54.4 0.00 49.5 71.2 0.00
10/5/22 - 2000 53.1 58 38.6 45.2 NW | 316 5.3 8.8 54.1 0.00 49.5 71.2 0.00
10/5/22 - 1900 55.3 54 39.2 46.4 WSW | 258 4.2 13.1 57.0 0.00 49.5 71.2 0.00
Max 70.4 58 39.2 47.5 - 9.3 16.0 68.0 0.00 51.4 71.2 0.00
Avg 57.3 33 26.8 42.5 - 2.9 7.9 57.2 0.00 - - -
Min 50.7 16 19.3 38.0 - 0.0 1.2 51.0 0.00 49.5 53.0 0.00
Total - - - - - - - - 0.00 - - -